Flugplatz - Wetter - Augsburg

[Quelle: ADDS]
METAR
EDMA 010720Z 30010KT 9999 -DZ BKN010 OVC018 13/12 Q1019 =
EDMA 010500Z 0106/0115 VRB02KT 9999 SCT010 BKN013 BECMG 0106/0108 28008KT PROB30 TEMPO 0106/0114 4000 RA BKN008 BECMG 0113/0115 BKN015
TAF
EDMA 010500Z 0106/0115 VRB02KT 9999 SCT010 BKN013 BECMG 0106/0108 28008KT PROB30 TEMPO 0106/0114 4000 RA BKN008 BECMG 0113/0115 BKN015 =
SR / SS: 03:21 / 19:22 UTC (Augsburg 2022-07-01)

Flugplatz - Wetter - Laupheim

[Quelle: ADDS]
METAR
ETHL 010720Z 26002KT 7000 -RA FEW002 BKN004 BKN040 13/11 Q1019 YLO GRN TEMPO YLO =
ETHL 010723Z 0108/0117 VRB03KT 8000 -RA FEW005 BKN012 BKN040 TEMPO 0108/0112 26007KT 4000 RADZ BKN004 BKN025
TAF
ETHL 010723Z 0108/0117 VRB03KT 8000 -RA FEW005 BKN012 BKN040 TEMPO 0108/0112 26007KT 4000 RADZ BKN004 BKN025 =
SR / SS: 03:25 / 19:25 UTC (Laupheim 2022-07-01)

Flugplatz - Wetter - Memmingen

[Quelle: ADDS]
METAR
EDJA 010720Z 31005KT 9999 -RA BKN003 BKN008 OVC025 12/12 Q1020 ATIS =
AMD EDJA 010701Z 0107/0115 28007KT 9999 SCT003 BKN010 PROB40 TEMPO 0107/0114 4000 RA BKN004 BECMG 0113/0115 BKN015
TAF
AMD EDJA 010701Z 0107/0115 28007KT 9999 SCT003 BKN010 PROB40 TEMPO 0107/0114 4000 RA BKN004 BECMG 0113/0115 BKN015 =
SR / SS: 03:25 / 19:20 UTC (Memmingen 2022-07-01)

Flugplatz - Wetter - Neuburg/Donau

[Quelle: ADDS]
METAR
ETSN 010720Z 31008KT 9999 FEW005 SCT009 BKN024 15/12 Q1018 WHT WHT TEMPO GRN =
ETSN 010712Z 0108/0117 30010KT 8000 -RA SCT010 BKN020 TEMPO 0108/0115 27010G20KT 4000 RA SCT006 BKN010 BECMG 0115/0117 25008KT 9999 NSW FEW015 BKN040 BY ETGL
TAF
ETSN 010712Z 0108/0117 30010KT 8000 -RA SCT010 BKN020 TEMPO 0108/0115 27010G20KT 4000 RA SCT006 BKN010 BECMG 0115/0117 25008KT 9999 NSW FEW015 BKN040 BY ETGL =
SR / SS: 03:18 / 19:20 UTC (Neuburg 2022-07-01)

Flugplatz - Wetter - Stuttgart

[Quelle: ADDS]
METAR
EDDS 010720Z AUTO 28006KT 230V310 9999 -RA SCT009 BKN013 BKN018 13/12 Q1020 TEMPO RA BKN009 =
EDDS 010500Z 0106/0206 27008KT 9999 BKN030 TEMPO 0106/0109 4000 SHRA BKN012 BKN030CB PROB30 TEMPO 0113/0116 SHRA SCT030TCU BECMG 0118/0120 VRB03KT
TAF
EDDS 010500Z 0106/0206 27008KT 9999 BKN030 TEMPO 0106/0109 4000 SHRA BKN012 BKN030CB PROB30 TEMPO 0113/0116 SHRA SCT030TCU BECMG 0118/0120 VRB03KT =
SR / SS: 03:26 / 19:28 UTC (Stuttgart 2022-07-01)

Flugplatz - Wetter - Niederstetten

[Quelle: ADDS]
METAR
ETHN 010720Z 26007KT 9999 -RA SCT004 OVC050 12/11 Q1019 BLU BLU TEMPO YLO =
ETHN 010422Z 0105/0114 27010G20KT 8000 -RA BKN003 BKN025 TEMPO 0105/0111 27010G20KT 4000 RADZ OVC001 PROB30 0106/0109 27010G20KT 8000 NSW SCT003 BKN025 BECMG 0111/0113 27010KT 9999 NSW SCT050
TAF
ETHN 010422Z 0105/0114 27010G20KT 8000 -RA BKN003 BKN025 TEMPO 0105/0111 27010G20KT 4000 RADZ OVC001 PROB30 0106/0109 27010G20KT 8000 NSW SCT003 BKN025 BECMG 0111/0113 27010KT 9999 NSW SCT050 =
SR / SS: 03:20 / 19:30 UTC (Niederstetten 2022-07-01)